Time;durP1;ratioP1;P1;durP2;ratioP2;P2;SDS_P1;SDS_P2;PMS_P1;PMS_P2;Temp;Humidity;BMP_temperature;BMP_pressure;BME280_temperature;BME280_humidity;BME280_pressure;Samples;Min_cycle;Max_cycle;Signal;HPM_P1;HPM_P2
2021/11/11 00:00:33;;;;;;;7.23;3.20;;;;;;;-1.04;83.60;97094.70;1762334;81;21184;-68
2021/11/11 00:03:03;;;;;;;4.63;2.53;;;;;;;-1.04;83.09;97096.41;1762300;81;21003;-68
2021/11/11 00:05:30;;;;;;;4.17;2.63;;;;;;;-1.11;82.82;97095.20;1762256;81;21061;-69
2021/11/11 00:07:57;;;;;;;5.03;3.17;;;;;;;-1.05;83.26;97089.05;1762473;81;21010;-68
2021/11/11 00:10:24;;;;;;;11.57;6.93;;;;;;;-1.12;83.01;97090.84;1762709;81;21543;-68
2021/11/11 00:12:52;;;;;;;12.13;7.70;;;;;;;-1.12;82.83;97090.84;1762337;81;21030;-68
2021/11/11 00:15:20;;;;;;;10.27;7.17;;;;;;;-1.21;82.57;97086.48;1762262;81;21126;-68
2021/11/11 00:17:48;;;;;;;7.57;4.67;;;;;;;-1.36;82.77;97085.29;1762573;81;21002;-68
2021/11/11 00:20:19;;;;;;;11.73;7.00;;;;;;;-1.37;82.98;97084.41;1762299;81;21117;-68
2021/11/11 00:22:46;;;;;;;8.60;4.20;;;;;;;-1.29;83.38;97075.73;1764423;81;21500;-68
2021/11/11 00:25:15;;;;;;;3.90;2.67;;;;;;;-1.22;83.50;97077.83;1765987;81;21121;-68
2021/11/11 00:27:43;;;;;;;3.80;2.33;;;;;;;-1.22;82.96;97075.23;1766108;81;21049;-68
2021/11/11 00:30:12;;;;;;;6.37;3.50;;;;;;;-1.18;83.14;97068.53;1766017;81;21524;-68
2021/11/11 00:32:39;;;;;;;13.80;7.50;;;;;;;-1.21;83.05;97071.86;1766314;81;21038;-68
2021/11/11 00:35:10;;;;;;;11.73;6.17;;;;;;;-1.22;82.86;97075.65;1765864;81;21033;-68
2021/11/11 00:37:38;;;;;;;4.33;2.27;;;;;;;-1.33;82.21;97072.11;1765926;81;21546;-68
2021/11/11 00:40:07;;;;;;;3.57;2.10;;;;;;;-1.42;82.11;97069.05;1765961;81;20995;-68
2021/11/11 00:42:34;;;;;;;2.10;1.70;;;;;;;-1.51;82.29;97064.71;1766091;81;21499;-68
2021/11/11 00:45:03;;;;;;;3.97;2.10;;;;;;;-1.51;82.54;97066.01;1766978;81;21098;-68
2021/11/11 00:47:31;;;;;;;2.23;1.70;;;;;;;-1.60;83.13;97071.98;1766376;81;21528;-68
2021/11/11 00:49:58;;;;;;;7.67;4.47;;;;;;;-1.61;83.11;97071.52;1766001;81;21030;-68
2021/11/11 00:52:26;;;;;;;10.63;6.10;;;;;;;-1.65;83.18;97078.62;1766368;81;20986;-68
2021/11/11 00:54:52;;;;;;;4.80;2.50;;;;;;;-1.67;83.19;97071.19;1766345;81;21109;-68
2021/11/11 00:57:27;;;;;;;3.13;1.90;;;;;;;-1.72;82.97;97074.82;1763789;81;21539;-68
2021/11/11 00:59:54;;;;;;;5.73;1.87;;;;;;;-1.66;83.47;97076.45;1765972;81;21031;-68
2021/11/11 01:02:20;;;;;;;3.60;1.93;;;;;;;-1.54;83.78;97082.65;1766014;81;21030;-68
2021/11/11 01:04:47;;;;;;;4.13;2.20;;;;;;;-1.42;84.09;97076.81;1765988;81;21599;-68
2021/11/11 01:07:15;;;;;;;3.17;1.80;;;;;;;-1.29;83.82;97077.44;1766164;81;21547;-68
2021/11/11 01:09:42;;;;;;;3.30;1.53;;;;;;;-1.24;83.62;97072.09;1766152;81;21086;-68
2021/11/11 01:12:09;;;;;;;3.20;1.80;;;;;;;-1.20;83.40;97072.33;1765823;81;21057;-68
2021/11/11 01:14:37;;;;;;;3.40;1.60;;;;;;;-1.38;82.65;97064.52;1766088;81;21061;-68
2021/11/11 01:17:05;;;;;;;2.83;1.67;;;;;;;-1.38;82.98;97067.52;1766286;81;21021;-68
2021/11/11 01:19:32;;;;;;;5.10;1.90;;;;;;;-1.34;83.12;97063.84;1766469;81;21492;-68
2021/11/11 01:22:00;;;;;;;2.50;1.77;;;;;;;-1.38;82.83;97058.46;1766228;81;21495;-68
2021/11/11 01:24:27;;;;;;;3.63;2.10;;;;;;;-1.37;83.14;97062.40;1766073;81;21021;-68
2021/11/11 01:26:55;;;;;;;6.13;3.47;;;;;;;-1.41;82.99;97060.48;1766047;81;21065;-68
2021/11/11 01:29:22;;;;;;;5.67;3.50;;;;;;;-1.42;82.84;97061.69;1766079;81;21034;-68
2021/11/11 01:31:49;;;;;;;5.10;3.30;;;;;;;-1.45;82.63;97066.72;1766107;81;21025;-68
2021/11/11 01:34:16;;;;;;;5.37;3.83;;;;;;;-1.58;82.53;97065.20;1765953;81;21034;-68
2021/11/11 01:36:43;;;;;;;14.77;6.07;;;;;;;-1.65;82.59;97065.28;1766180;81;20998;-69
2021/11/11 01:39:12;;;;;;;2.93;1.80;;;;;;;-1.67;83.01;97064.71;1764705;81;21110;-68
2021/11/11 01:41:44;;;;;;;2.50;1.63;;;;;;;-1.63;83.11;97060.19;1764950;81;21070;-68
2021/11/11 01:44:12;;;;;;;2.43;1.40;;;;;;;-1.53;83.40;97054.27;1765737;81;21087;-68
2021/11/11 01:46:40;;;;;;;2.93;1.53;;;;;;;-1.50;83.18;97053.95;1766414;81;20986;-69
2021/11/11 01:49:07;;;;;;;2.83;1.73;;;;;;;-1.52;82.92;97046.97;1766114;81;21568;-68
2021/11/11 01:51:36;;;;;;;3.60;2.00;;;;;;;-1.63;82.40;97050.72;1766188;81;20999;-68
2021/11/11 01:54:04;;;;;;;1.73;1.30;;;;;;;-1.70;82.29;97046.45;1766472;81;21584;-68
2021/11/11 01:56:32;;;;;;;2.33;1.30;;;;;;;-1.75;82.49;97047.09;1766359;81;21038;-68
2021/11/11 01:59:01;;;;;;;6.60;1.40;;;;;;;-1.82;82.43;97051.86;1763053;81;21564;-68
2021/11/11 02:01:29;;;;;;;3.13;1.40;;;;;;;-1.85;82.81;97045.23;1766376;81;21038;-68
2021/11/11 02:03:56;;;;;;;2.23;1.20;;;;;;;-1.79;83.21;97052.02;1766101;81;21129;-68
2021/11/11 02:06:27;;;;;;;3.47;1.20;;;;;;;-1.74;83.14;97054.44;1764079;81;21496;-68
2021/11/11 02:08:59;;;;;;;2.30;1.60;;;;;;;-1.68;83.46;97053.48;1766577;81;21588;-68
2021/11/11 02:11:28;;;;;;;2.23;1.60;;;;;;;-1.64;83.56;97050.63;1759658;81;21018;-68
2021/11/11 02:13:54;;;;;;;3.00;1.67;;;;;;;-1.63;83.03;97048.55;1765926;81;21130;-68
2021/11/11 02:16:22;;;;;;;3.80;1.60;;;;;;;-1.71;82.39;97058.50;1766356;81;21097;-68
2021/11/11 02:18:49;;;;;;;5.90;2.07;;;;;;;-1.75;82.59;97049.67;1766205;81;21026;-69
2021/11/11 02:21:16;;;;;;;3.20;1.73;;;;;;;-1.75;82.78;97052.67;1766215;81;21125;-69
2021/11/11 02:23:45;;;;;;;1.73;1.13;;;;;;;-1.85;82.30;97050.00;1765141;81;20987;-68
2021/11/11 02:26:14;;;;;;;3.43;1.40;;;;;;;-1.94;82.21;97053.80;1764812;81;21102;-68
2021/11/11 02:28:46;;;;;;;1.57;1.17;;;;;;;-2.05;82.22;97055.41;1765526;81;21025;-68
2021/11/11 02:31:14;;;;;;;1.53;1.10;;;;;;;-2.05;82.52;97055.41;1766474;81;21062;-68
2021/11/11 02:33:53;;;;;;;2.17;1.33;;;;;;;-2.03;82.81;97046.05;1766197;81;21037;-69
2021/11/11 02:36:21;;;;;;;2.53;1.40;;;;;;;-1.95;83.41;97045.16;1766324;81;21110;-68
2021/11/11 02:38:49;;;;;;;2.07;1.20;;;;;;;-1.89;83.58;97042.91;1766422;81;21030;-68
2021/11/11 02:41:17;;;;;;;2.20;1.00;;;;;;;-1.84;83.30;97046.63;1735981;81;21600;-68
2021/11/11 02:43:45;;;;;;;5.20;1.90;;;;;;;-1.92;82.69;97050.89;1766234;81;21017;-68
2021/11/11 02:46:13;;;;;;;3.33;1.53;;;;;;;-2.05;82.33;97048.06;1766298;81;21083;-68
2021/11/11 02:48:41;;;;;;;1.20;1.00;;;;;;;-2.07;82.30;97050.56;1766115;81;21130;-68
2021/11/11 02:51:11;;;;;;;4.00;1.20;;;;;;;-2.05;82.84;97053.23;1766117;81;21074;-68
2021/11/11 02:53:41;;;;;;;2.93;1.33;;;;;;;-1.95;83.21;97046.45;1766504;81;21536;-68
2021/11/11 02:56:08;;;;;;;4.90;1.40;;;;;;;-1.91;83.26;97042.34;1766039;81;21042;-68
2021/11/11 02:58:36;;;;;;;1.50;1.20;;;;;;;-1.85;83.43;97031.89;1736365;81;21023;-68
2021/11/11 03:01:05;;;;;;;3.97;1.37;;;;;;;-1.86;82.89;97031.42;1765911;81;21066;-68
2021/11/11 03:03:32;;;;;;;2.23;1.40;;;;;;;-1.93;82.74;97034.49;1766318;81;21011;-68
2021/11/11 03:06:01;;;;;;;2.37;1.27;;;;;;;-2.01;82.59;97023.75;1766102;81;21584;-68
2021/11/11 03:08:28;;;;;;;1.50;1.00;;;;;;;-1.97;83.05;97023.11;1766138;81;21069;-68
2021/11/11 03:10:57;;;;;;;1.13;0.90;;;;;;;-1.92;83.02;97016.86;1766367;81;21018;-68
2021/11/11 03:13:26;;;;;;;2.30;1.40;;;;;;;-1.99;82.41;97016.05;1765446;81;20963;-68
2021/11/11 03:15:58;;;;;;;4.77;1.10;;;;;;;-2.00;82.44;97019.05;1757742;81;21058;-68
2021/11/11 03:18:26;;;;;;;1.50;0.93;;;;;;;-2.00;82.79;97010.41;1766469;81;21005;-68
2021/11/11 03:20:53;;;;;;;1.97;1.00;;;;;;;-1.91;83.27;97014.77;1766006;81;21110;-68
2021/11/11 03:23:20;;;;;;;1.30;0.70;;;;;;;-2.00;82.66;97009.99;1766005;81;21039;-68
2021/11/11 03:25:48;;;;;;;2.20;0.93;;;;;;;-2.05;82.44;97015.73;1736114;81;21094;-68
2021/11/11 03:28:15;;;;;;;1.17;1.00;;;;;;;-2.12;82.44;97001.59;1765955;81;21053;-68
2021/11/11 03:30:44;;;;;;;1.20;1.10;;;;;;;-2.14;82.80;97004.52;1765918;81;21101;-68
2021/11/11 03:33:11;;;;;;;1.83;1.13;;;;;;;-2.08;82.89;97004.83;1766335;81;21082;-68
2021/11/11 03:35:40;;;;;;;2.80;1.30;;;;;;;-2.07;83.12;97001.83;1766100;81;21094;-68
2021/11/11 03:38:09;;;;;;;1.97;0.97;;;;;;;-1.98;83.25;97002.33;1765986;81;21584;-68
2021/11/11 03:40:41;;;;;;;1.50;1.17;;;;;;;-1.97;82.77;96998.54;1766240;81;21002;-68
2021/11/11 03:43:10;;;;;;;3.62;2.02;;;;;;;-2.06;82.44;97001.92;1766297;81;20967;-68
2021/11/11 03:45:39;;;;;;;1.83;1.27;;;;;;;-2.10;81.58;97004.27;1754198;81;21123;-68
2021/11/11 03:48:07;;;;;;;3.33;1.20;;;;;;;-2.12;82.09;97002.88;1766273;81;21030;-67
2021/11/11 03:50:35;;;;;;;1.73;1.10;;;;;;;-2.03;82.75;96999.49;1766420;81;21006;-68
2021/11/11 03:53:04;;;;;;;1.60;1.13;;;;;;;-1.96;83.01;96996.84;1765925;81;21157;-68
2021/11/11 03:55:30;;;;;;;1.70;1.00;;;;;;;-1.88;83.12;96993.34;1766244;81;21023;-68
2021/11/11 03:57:59;;;;;;;1.27;1.03;;;;;;;-1.82;83.05;96987.19;1765868;81;21065;-68
2021/11/11 04:00:27;;;;;;;1.77;1.10;;;;;;;-1.89;82.31;96991.17;1736362;81;21117;-68
2021/11/11 04:02:55;;;;;;;2.20;0.83;;;;;;;-1.97;82.07;96979.14;1736313;81;21002;-68
2021/11/11 04:05:22;;;;;;;2.23;1.30;;;;;;;-1.95;82.23;96988.25;1766139;81;21541;-68
2021/11/11 04:07:50;;;;;;;2.07;1.10;;;;;;;-1.99;82.06;96983.34;1765475;81;21615;-68
2021/11/11 04:10:17;;;;;;;2.20;1.10;;;;;;;-2.06;81.56;96988.99;1766294;81;21023;-68
2021/11/11 04:12:45;;;;;;;1.20;0.93;;;;;;;-2.02;82.38;96981.86;1766277;81;21005;-68
2021/11/11 04:15:12;;;;;;;1.27;0.90;;;;;;;-2.00;82.23;96984.54;1765916;81;21026;-68
2021/11/11 04:17:39;;;;;;;2.13;1.07;;;;;;;-2.04;82.07;96983.88;1766230;81;21531;-68
2021/11/11 04:20:09;;;;;;;1.57;1.17;;;;;;;-1.99;82.46;96979.84;1765990;81;21041;-68
2021/11/11 04:22:38;;;;;;;2.27;1.07;;;;;;;-1.96;82.26;96978.73;1766205;81;21094;-68
2021/11/11 04:25:08;;;;;;;2.53;0.93;;;;;;;-2.09;81.91;96975.00;1762416;81;21011;-68
2021/11/11 04:27:44;;;;;;;2.37;0.73;;;;;;;-2.13;81.82;96973.97;1762538;81;21086;-68
2021/11/11 04:30:27;;;;;;;1.60;0.87;;;;;;;-2.17;81.86;96972.02;1760682;81;21038;-68
2021/11/11 04:32:45;;;;;;;1.80;0.97;;;;;;;-2.15;82.27;96967.81;1759961;81;21115;-68
2021/11/11 04:35:12;;;;;;;1.13;0.70;;;;;;;-2.08;82.57;96969.92;1762338;81;21138;-68
2021/11/11 05:01:29;;;;;;;0.83;0.70;;;;;;;-2.24;81.79;96957.90;1831241;78;21058;-71
2021/11/11 05:03:54;;;;;;;1.27;0.80;;;;;;;-2.32;81.84;96959.16;1831369;78;21031;-70
2021/11/11 05:06:20;;;;;;;1.80;0.97;;;;;;;-2.35;82.04;96953.84;1831268;78;21582;-70
2021/11/11 05:08:48;;;;;;;1.10;0.90;;;;;;;-2.33;82.25;96955.23;1831156;78;21052;-68
2021/11/11 05:11:14;;;;;;;1.63;1.00;;;;;;;-2.37;82.02;96955.45;1831608;78;21047;-68
2021/11/11 05:13:42;;;;;;;1.00;0.90;;;;;;;-2.33;82.41;96952.64;1831441;78;21011;-68
2021/11/11 05:16:10;;;;;;;1.80;1.03;;;;;;;-2.31;82.33;96954.91;1831361;78;21039;-68
2021/11/11 05:18:37;;;;;;;1.10;0.90;;;;;;;-2.35;82.26;96949.08;1831541;78;21054;-68
2021/11/11 05:21:06;;;;;;;1.63;0.90;;;;;;;-2.39;82.57;96944.17;1831245;78;21046;-68
2021/11/11 05:23:34;;;;;;;1.27;0.80;;;;;;;-2.43;82.52;96949.56;1832564;78;21003;-68
2021/11/11 05:26:00;;;;;;;1.10;0.70;;;;;;;-2.49;82.55;96941.50;1834795;78;21023;-68
2021/11/11 05:28:27;;;;;;;2.10;1.20;;;;;;;-2.45;82.84;96941.24;1834677;78;20980;-68
2021/11/11 05:30:54;;;;;;;1.90;1.23;;;;;;;-2.34;83.15;96937.55;1834768;78;21557;-68
2021/11/11 05:33:21;;;;;;;1.43;0.90;;;;;;;-2.21;83.29;96930.91;1835181;78;21031;-68
2021/11/11 05:35:48;;;;;;;1.40;0.83;;;;;;;-2.23;82.89;96927.34;1834609;78;21051;-68
2021/11/11 05:38:15;;;;;;;1.50;0.80;;;;;;;-2.20;82.87;96927.49;1834784;78;21059;-68
2021/11/11 05:40:42;;;;;;;2.40;0.87;;;;;;;-2.10;83.22;96925.39;1834734;78;21075;-68
2021/11/11 05:43:10;;;;;;;1.67;1.00;;;;;;;-2.10;82.48;96932.73;1834829;78;21007;-68
2021/11/11 05:45:37;;;;;;;2.90;1.00;;;;;;;-2.15;82.23;96932.03;1834623;78;21051;-68
2021/11/11 05:48:04;;;;;;;1.77;1.00;;;;;;;-2.14;82.28;96933.79;1807111;78;21120;-68
2021/11/11 05:50:33;;;;;;;1.07;0.60;;;;;;;-2.12;82.62;96938.23;1834676;78;21027;-68
2021/11/11 05:53:00;;;;;;;1.53;0.80;;;;;;;-2.10;82.22;96940.50;1834767;78;21004;-68
2021/11/11 05:55:27;;;;;;;2.17;1.30;;;;;;;-2.10;82.26;96943.08;1834914;78;20976;-68
2021/11/11 05:57:54;;;;;;;2.20;1.30;;;;;;;-2.10;82.10;96943.08;1834731;78;21078;-68
2021/11/11 06:00:21;;;;;;;1.07;0.93;;;;;;;-2.11;82.31;96931.39;1834601;78;21012;-68
2021/11/11 06:02:50;;;;;;;1.67;0.90;;;;;;;-2.05;82.43;96944.20;1834146;78;21054;-68
2021/11/11 06:05:22;;;;;;;1.17;0.90;;;;;;;-2.03;82.23;96939.13;1834464;78;21043;-68
2021/11/11 06:07:50;;;;;;;10.30;4.00;;;;;;;-2.08;81.87;96938.00;1835125;78;21025;-68
2021/11/11 06:10:17;;;;;;;3.63;1.60;;;;;;;-2.12;81.93;96942.11;1834625;78;21015;-69
2021/11/11 06:12:44;;;;;;;1.80;1.10;;;;;;;-2.15;82.01;96943.66;1835037;78;21028;-68
2021/11/11 06:15:11;;;;;;;1.23;0.80;;;;;;;-2.24;82.59;96937.22;1834752;78;21011;-68
2021/11/11 06:17:38;;;;;;;2.43;1.30;;;;;;;-2.18;82.87;96944.39;1834608;78;21889;-68
2021/11/11 06:20:27;;;;;;;1.93;1.10;;;;;;;-2.18;82.76;96943.98;1835025;78;21039;-68
2021/11/11 06:22:48;;;;;;;1.10;0.90;;;;;;;-2.02;83.27;96943.48;1833034;77;21043;-68
2021/11/11 06:25:17;;;;;;;3.03;1.30;;;;;;;-1.88;83.17;96948.96;1839162;78;21054;-68
2021/11/11 06:27:45;;;;;;;3.30;2.17;;;;;;;-1.92;82.85;96940.96;1839912;78;21052;-69
2021/11/11 06:30:12;;;;;;;2.13;1.70;;;;;;;-1.87;82.82;96936.49;1812349;78;21504;-68
2021/11/11 06:32:38;;;;;;;2.27;1.20;;;;;;;-1.83;82.80;96932.38;1840291;78;21071;-68
2021/11/11 06:35:10;;;;;;;4.63;2.67;;;;;;;-1.72;83.14;96929.03;1840734;78;21500;-69
2021/11/11 06:37:37;;;;;;;2.03;1.40;;;;;;;-1.68;83.42;96929.68;1840928;78;21496;-68
2021/11/11 06:40:06;;;;;;;2.67;1.30;;;;;;;-1.62;83.63;96935.15;1840522;78;21501;-69
2021/11/11 06:42:33;;;;;;;2.20;1.70;;;;;;;-1.50;83.44;96929.70;1840839;78;21043;-68
2021/11/11 06:45:00;;;;;;;2.83;1.70;;;;;;;-1.43;83.32;96928.78;1840664;78;21019;-68
2021/11/11 06:47:26;;;;;;;1.70;1.10;;;;;;;-1.42;83.29;96929.66;1840033;78;21090;-68
2021/11/11 06:49:53;;;;;;;1.50;0.80;;;;;;;-1.37;83.52;96934.23;1840692;78;21058;-69
2021/11/11 06:52:19;;;;;;;13.53;2.70;;;;;;;-1.37;83.48;96920.41;1840424;78;21015;-68
2021/11/11 06:54:46;;;;;;;0.73;0.67;;;;;;;-1.37;83.17;96923.88;1840986;78;21492;-68
2021/11/11 06:57:13;;;;;;;2.13;1.20;;;;;;;-1.44;83.37;96921.80;1840475;78;21023;-68
2021/11/11 06:59:41;;;;;;;1.70;1.40;;;;;;;-1.41;83.49;96912.00;1839943;78;21026;-68
2021/11/11 07:02:08;;;;;;;1.50;1.30;;;;;;;-1.36;83.70;96915.33;1840447;78;21043;-68
2021/11/11 07:04:35;;;;;;;3.53;1.73;;;;;;;-1.34;83.83;96911.08;1841090;78;21445;-68
2021/11/11 07:07:03;;;;;;;2.27;1.20;;;;;;;-1.31;84.08;96912.96;1840373;78;21580;-69
2021/11/11 07:09:30;;;;;;;8.10;4.33;;;;;;;-1.17;84.33;96906.72;1813018;78;21470;-69
2021/11/11 07:11:56;;;;;;;5.30;3.30;;;;;;;-0.96;84.78;96908.54;1840460;78;21007;-69
2021/11/11 07:14:23;;;;;;;4.20;2.80;;;;;;;-0.88;84.35;96914.58;1840193;78;21479;-69
2021/11/11 07:16:50;;;;;;;5.63;3.27;;;;;;;-0.83;84.32;96911.30;1840468;78;21055;-69
2021/11/11 07:19:16;;;;;;;4.50;3.03;;;;;;;-0.75;84.21;96916.03;1840441;78;21038;-69
2021/11/11 07:21:43;;;;;;;4.80;3.57;;;;;;;-0.69;84.40;96910.23;1840299;78;21133;-69
2021/11/11 07:24:09;;;;;;;4.37;2.57;;;;;;;-0.73;84.18;96906.63;1838914;78;20999;-68
2021/11/11 07:26:36;;;;;;;11.50;5.53;;;;;;;-0.74;84.26;96906.13;1834880;78;21080;-69
2021/11/11 07:29:03;;;;;;;8.43;4.40;;;;;;;-0.70;84.24;96904.58;1834880;78;21019;-68
2021/11/11 07:31:30;;;;;;;6.30;3.37;;;;;;;-0.58;85.24;96912.92;1834926;78;21027;-69
2021/11/11 07:33:57;;;;;;;10.57;5.87;;;;;;;-0.50;85.10;96909.38;1835090;78;21007;-69
2021/11/11 07:36:25;;;;;;;9.53;4.83;;;;;;;-0.41;85.10;96902.41;1834732;78;21091;-69
2021/11/11 07:38:53;;;;;;;8.00;4.60;;;;;;;-0.38;85.03;96902.12;1834866;78;20984;-69
2021/11/11 07:41:20;;;;;;;11.73;6.40;;;;;;;-0.30;85.10;96900.78;1835105;78;21000;-68
2021/11/11 07:43:48;;;;;;;15.33;8.57;;;;;;;-0.31;85.03;96905.47;1834679;78;20968;-69
2021/11/11 07:46:15;;;;;;;15.73;8.10;;;;;;;-0.16;85.45;96900.48;1835065;78;20983;-68
2021/11/11 07:48:42;;;;;;;13.83;8.20;;;;;;;-0.03;85.31;96897.17;1834683;78;21047;-68
2021/11/11 07:51:09;;;;;;;14.40;8.60;;;;;;;0.03;85.20;96891.81;1835204;78;21435;-68
2021/11/11 07:53:35;;;;;;;22.37;12.77;;;;;;;0.11;85.31;96881.34;1834826;78;21075;-68
2021/11/11 07:56:03;;;;;;;22.10;12.53;;;;;;;0.25;85.55;96880.19;1835088;78;21004;-68
2021/11/11 07:58:30;;;;;;;21.43;11.00;;;;;;;0.37;85.44;96878.09;1834901;78;21095;-68
2021/11/11 08:00:58;;;;;;;20.83;11.23;;;;;;;0.57;85.19;96884.53;1834948;78;21012;-68
2021/11/11 08:03:24;;;;;;;21.37;12.50;;;;;;;0.72;85.30;96877.77;1834737;78;21115;-68
2021/11/11 08:05:51;;;;;;;24.37;14.87;;;;;;;0.79;85.20;96875.48;1835095;78;21042;-68
2021/11/11 08:08:17;;;;;;;24.07;14.77;;;;;;;0.95;85.56;96871.76;1834966;78;21020;-68
2021/11/11 08:10:44;;;;;;;21.07;12.53;;;;;;;1.14;85.08;96875.09;1834629;78;21099;-68
2021/11/11 08:13:11;;;;;;;20.17;13.00;;;;;;;1.24;84.66;96870.29;1835371;78;20944;-68
2021/11/11 08:15:38;;;;;;;19.97;11.77;;;;;;;1.36;84.56;96872.86;1834986;78;21074;-68
2021/11/11 08:18:06;;;;;;;15.47;8.67;;;;;;;1.52;84.59;96870.02;1834720;78;21031;-68
2021/11/11 08:20:33;;;;;;;20.20;11.97;;;;;;;1.69;84.48;96858.52;1835242;78;21046;-68
2021/11/11 08:23:00;;;;;;;14.37;9.20;;;;;;;1.85;84.52;96857.33;1835195;78;21501;-68
2021/11/11 08:25:26;;;;;;;21.47;11.50;;;;;;;1.98;83.90;96856.05;1801611;78;20973;-68
2021/11/11 08:27:54;;;;;;;20.67;13.13;;;;;;;2.08;83.56;96857.25;1831452;78;21084;-68
2021/11/11 08:30:21;;;;;;;19.60;12.17;;;;;;;2.21;83.37;96860.73;1831178;78;21012;-68
2021/11/11 08:32:51;;;;;;;23.50;14.30;;;;;;;2.33;83.18;96858.97;1831112;78;21035;-68
2021/11/11 08:35:20;;;;;;;31.50;17.60;;;;;;;2.49;83.41;96857.75;1831669;78;20998;-68
2021/11/11 08:37:47;;;;;;;27.43;16.03;;;;;;;2.66;83.06;96850.49;1831582;78;21018;-69
2021/11/11 08:40:18;;;;;;;28.13;17.60;;;;;;;2.70;82.35;96847.16;1831405;78;21127;-69
2021/11/11 08:42:48;;;;;;;30.57;18.27;;;;;;;2.81;82.15;96856.19;1831857;78;21000;-68
2021/11/11 08:45:15;;;;;;;32.90;20.30;;;;;;;2.98;82.42;96847.17;1831502;78;21018;-68
2021/11/11 08:47:43;;;;;;;34.30;20.33;;;;;;;3.12;82.01;96847.58;1831333;78;21127;-68
2021/11/11 08:50:11;;;;;;;28.67;17.63;;;;;;;3.30;82.00;96845.06;1831560;78;21007;-68
2021/11/11 08:52:44;;;;;;;20.10;12.33;;;;;;;3.40;81.75;96833.66;1797855;78;21051;-68
2021/11/11 08:55:17;;;;;;;57.30;33.50;;;;;;;3.62;81.63;96830.34;1831606;78;21048;-68
2021/11/11 08:57:44;;;;;;;32.27;17.40;;;;;;;3.83;80.64;96820.52;1831661;78;21043;-68
2021/11/11 09:00:17;;;;;;;31.53;17.27;;;;;;;3.98;80.31;96824.35;1830970;78;21067;-68
2021/11/11 09:02:46;;;;;;;24.57;14.13;;;;;;;4.17;79.82;96820.52;1831774;78;21042;-68
2021/11/11 09:05:14;;;;;;;27.57;15.57;;;;;;;4.24;79.42;96818.52;1831827;78;21011;-68
2021/11/11 09:07:40;;;;;;;26.00;15.43;;;;;;;4.25;79.15;96810.70;1831676;78;21466;-68
2021/11/11 09:10:10;;;;;;;35.23;20.70;;;;;;;4.29;79.05;96816.91;1831317;78;21135;-68
2021/11/11 09:12:37;;;;;;;32.87;20.97;;;;;;;4.43;79.80;96817.24;1831597;78;20999;-68
2021/11/11 09:15:09;;;;;;;39.83;24.33;;;;;;;4.62;79.84;96812.06;1830917;78;21106;-68
2021/11/11 09:17:38;;;;;;;39.53;23.90;;;;;;;4.83;79.71;96814.28;1831694;78;21106;-68
2021/11/11 09:20:09;;;;;;;42.97;24.23;;;;;;;4.96;78.77;96810.70;1831640;78;21012;-68
2021/11/11 09:22:36;;;;;;;38.13;22.83;;;;;;;5.09;79.03;96801.39;1831019;78;21091;-68
2021/11/11 09:25:06;;;;;;;28.80;17.70;;;;;;;5.27;79.15;96799.59;1832663;78;21080;-68
2021/11/11 09:27:34;;;;;;;26.20;17.87;;;;;;;5.39;78.61;96792.00;1835130;78;21008;-68
2021/11/11 09:30:04;;;;;;;20.60;12.27;;;;;;;5.39;78.27;96784.55;1834988;78;20998;-67
2021/11/11 09:32:31;;;;;;;18.20;9.90;;;;;;;5.52;77.94;96789.20;1835220;78;21015;-68
2021/11/11 09:34:58;;;;;;;18.37;9.63;;;;;;;5.70;77.07;96787.38;1834714;78;21102;-68
2021/11/11 09:37:25;;;;;;;5.07;3.77;;;;;;;5.78;76.85;96779.66;1834794;78;21015;-68
2021/11/11 09:39:51;;;;;;;10.73;5.60;;;;;;;6.06;74.84;96783.27;1834882;78;21050;-68
2021/11/11 09:42:19;;;;;;;7.87;4.27;;;;;;;6.36;75.98;96778.11;1834706;78;21512;-68
2021/11/11 09:44:46;;;;;;;8.00;4.73;;;;;;;6.44;75.60;96774.30;1835107;78;20959;-68
2021/11/11 09:47:13;;;;;;;10.67;5.07;;;;;;;6.58;75.16;96770.61;1834743;78;21517;-69
2021/11/11 09:49:40;;;;;;;5.90;3.10;;;;;;;6.91;75.73;96757.11;1834960;78;21020;-69
2021/11/11 09:52:07;;;;;;;8.67;4.57;;;;;;;7.50;74.76;96758.75;1834815;78;21020;-69
2021/11/11 09:59:46;;;;;;;2.90;1.93;;;;;;;9.31;69.95;96733.55;1835027;78;20972;-70
2021/11/11 10:02:12;;;;;;;2.80;2.13;;;;;;;10.07;67.29;96739.94;1745415;82;21048;-71
2021/11/11 10:04:39;;;;;;;2.62;2.15;;;;;;;10.69;66.00;96726.38;1767814;81;21026;-69
2021/11/11 10:07:06;;;;;;;3.52;2.17;;;;;;;11.29;63.79;96723.62;1767697;81;21079;-69
2021/11/11 10:09:39;;;;;;;3.10;2.37;;;;;;;11.89;64.01;96718.97;1795684;80;21052;-70
2021/11/11 10:12:10;;;;;;;3.05;2.50;;;;;;;12.41;60.50;96713.76;1795943;80;21069;-70
2021/11/11 10:14:40;;;;;;;2.47;2.20;;;;;;;12.94;58.07;96706.23;1794987;80;20997;-70
2021/11/11 10:17:11;;;;;;;3.55;2.60;;;;;;;13.92;54.17;96706.87;1767120;80;20981;-69
2021/11/11 10:19:49;;;;;;;4.83;3.10;;;;;;;13.92;54.17;96706.87;1795584;80;21578;-69
2021/11/11 10:22:23;;;;;;;3.37;2.83;;;;;;;14.24;51.91;96712.58;1795832;80;21012;-70
2021/11/11 10:25:06;;;;;;;3.52;2.70;;;;;;;14.69;53.35;96703.91;1796033;80;21001;-71
2021/11/11 10:27:43;;;;;;;2.95;2.65;;;;;;;14.96;46.53;96699.91;1796651;80;21009;-71
2021/11/11 10:30:23;;;;;;;3.70;2.90;;;;;;;15.23;50.16;96698.52;1794922;80;21539;-71
2021/11/11 10:32:58;;;;;;;4.20;3.12;;;;;;;15.42;46.09;96696.82;1796136;80;21017;-71
2021/11/11 10:35:28;;;;;;;4.53;3.12;;;;;;;15.64;47.83;96686.63;1793658;80;21075;-72
2021/11/11 10:38:00;;;;;;;4.28;2.85;;;;;;;15.90;42.02;96686.98;1796321;79;21590;-71
2021/11/11 10:40:35;;;;;;;5.62;3.00;;;;;;;16.20;44.42;96684.52;1792266;80;21016;-71
2021/11/11 10:43:10;;;;;;;3.35;3.00;;;;;;;16.00;40.11;96677.88;1796355;79;21017;-71
2021/11/11 10:45:41;;;;;;;3.20;2.90;;;;;;;16.07;43.18;96678.60;1796082;80;20981;-71
2021/11/11 10:48:11;;;;;;;4.45;2.90;;;;;;;16.31;43.95;96681.62;1796381;79;21012;-71
2021/11/11 10:50:46;;;;;;;6.33;3.62;;;;;;;16.48;43.25;96677.20;1796375;80;21000;-71
2021/11/11 10:53:17;;;;;;;4.55;3.08;;;;;;;16.55;41.52;96679.67;1796009;80;21020;-71
2021/11/11 10:55:52;;;;;;;3.77;3.27;;;;;;;16.78;39.45;96680.48;1796047;80;21036;-71
2021/11/11 10:58:25;;;;;;;4.67;2.92;;;;;;;17.18;42.14;96674.53;1796387;80;21047;-71
2021/11/11 11:01:04;;;;;;;4.58;3.33;;;;;;;17.54;38.64;96675.31;1796438;80;21538;-71
2021/11/11 11:03:42;;;;;;;4.03;3.20;;;;;;;17.66;37.85;96672.72;1796116;79;21021;-71
2021/11/11 11:06:12;;;;;;;4.20;3.00;;;;;;;17.86;37.81;96673.50;1796488;80;21424;-72
2021/11/11 11:08:43;;;;;;;4.97;3.02;;;;;;;17.93;37.16;96671.06;1796350;80;21004;-72
2021/11/11 11:11:18;;;;;;;4.40;3.80;;;;;;;17.87;37.10;96668.13;1796059;80;21024;-71
2021/11/11 11:13:49;;;;;;;4.45;3.10;;;;;;;17.58;36.96;96671.61;1795983;80;21060;-71
2021/11/11 11:16:22;;;;;;;5.78;3.67;;;;;;;17.64;36.85;96668.78;1796320;80;21013;-71
2021/11/11 11:18:58;;;;;;;3.77;3.47;;;;;;;17.87;38.09;96664.13;1796557;80;21009;-72
2021/11/11 11:21:40;;;;;;;4.65;3.20;;;;;;;18.04;38.27;96654.70;1796658;80;21016;-71
2021/11/11 11:24:15;;;;;;;4.15;3.67;;;;;;;18.31;36.99;96657.84;1796492;80;21525;-71
2021/11/11 11:26:49;;;;;;;3.47;3.17;;;;;;;18.57;36.26;96646.32;1779192;79;21500;-71
2021/11/11 11:29:27;;;;;;;5.12;3.45;;;;;;;18.50;35.58;96645.23;1778062;81;21492;-71
2021/11/11 11:32:12;;;;;;;8.13;3.67;;;;;;;18.61;35.33;96648.41;1777202;81;20978;-71
2021/11/11 11:34:45;;;;;;;7.15;3.70;;;;;;;18.71;35.19;96651.66;1777693;80;21085;-71
2021/11/11 11:37:19;;;;;;;6.62;3.40;;;;;;;18.90;35.19;96647.47;1778036;80;20962;-71
2021/11/11 11:39:56;;;;;;;5.58;3.10;;;;;;;18.75;33.69;96643.52;1777518;80;21059;-71
2021/11/11 11:42:35;;;;;;;5.08;3.62;;;;;;;18.89;34.92;96648.37;1777457;81;21021;-71
2021/11/11 11:45:19;;;;;;;3.67;3.37;;;;;;;18.38;33.83;96648.70;1777274;81;20998;-71
2021/11/11 11:47:53;;;;;;;6.33;3.83;;;;;;;18.28;34.63;96639.24;1750468;81;21567;-71
2021/11/11 11:50:35;;;;;;;18.12;13.18;;;;;;;18.54;36.00;96637.04;1777911;80;21001;-71
2021/11/11 11:53:07;;;;;;;22.22;16.27;;;;;;;18.73;33.34;96636.44;1777907;81;21082;-70
2021/11/11 11:55:48;;;;;;;7.45;4.80;;;;;;;19.12;33.54;96633.32;1778092;80;21416;-71
2021/11/11 11:58:16;;;;;;;22.37;17.62;;;;;;;19.26;33.80;96632.37;1776267;81;21086;-71
2021/11/11 12:09:16;;;;;;;14.40;12.88;;;;;;;19.65;32.96;96623.77;1776509;81;21298;-71
2021/11/11 15:59:50;;;;;;;7.23;4.53;;;;;;;3.06;75.41;96613.16;1826876;78;21042;-71
2021/11/11 16:00:11;;;;;;;6.45;4.42;;;;;;;2.99;74.94;96615.59;1822276;78;21006;-71
2021/11/11 16:27:06;;;;;;;6.83;4.03;;;;;;;2.51;75.50;96618.59;1826283;78;20939;-70